createdAt,value
2018-10-09T00:00:05.905Z,7.43
2018-10-09T00:02:36.500Z,7.00
2018-10-09T00:05:07.644Z,6.67
2018-10-09T00:07:38.373Z,7.53
2018-10-09T00:10:09.162Z,5.60
2018-10-09T00:12:39.794Z,8.17
2018-10-09T00:15:10.436Z,8.27
2018-10-09T00:17:41.079Z,4.70
2018-10-09T00:20:15.150Z,8.00
2018-10-09T00:22:45.869Z,10.90
2018-10-09T00:25:16.494Z,7.90
2018-10-09T00:27:47.156Z,8.73
2018-10-09T00:30:17.895Z,10.87
2018-10-09T00:32:48.474Z,10.27
2018-10-09T00:35:19.151Z,10.73
2018-10-09T00:37:49.861Z,8.00
2018-10-09T00:40:20.536Z,11.63
2018-10-09T00:42:51.307Z,11.43
2018-10-09T00:45:21.970Z,7.97
2018-10-09T00:47:52.655Z,7.53
2018-10-09T00:50:23.327Z,6.53
2018-10-09T00:52:53.966Z,8.87
2018-10-09T00:55:24.728Z,5.30
2018-10-09T00:57:55.419Z,6.67
2018-10-09T01:00:26.125Z,10.83
2018-10-09T01:02:56.768Z,7.70
2018-10-09T01:05:27.446Z,7.33
2018-10-09T01:07:58.082Z,10.37
2018-10-09T01:10:28.761Z,7.83
2018-10-09T01:12:59.374Z,6.03
2018-10-09T01:15:30.209Z,9.60
2018-10-09T01:18:31.817Z,10.03
2018-10-09T01:21:02.520Z,7.93
2018-10-09T01:23:33.183Z,10.03
2018-10-09T01:26:03.933Z,6.97
2018-10-09T01:28:34.580Z,7.97
2018-10-09T01:31:05.265Z,7.83
2018-10-09T01:33:35.943Z,9.30
2018-10-09T01:36:06.824Z,12.67
2018-10-09T01:38:37.566Z,7.23
2018-10-09T01:41:08.204Z,7.77
2018-10-09T01:43:38.872Z,7.50
2018-10-09T01:46:09.558Z,9.00
2018-10-09T01:48:40.255Z,7.90
2018-10-09T01:51:11.027Z,6.83
2018-10-09T01:53:41.745Z,8.80
2018-10-09T01:56:12.388Z,8.13
2018-10-09T01:58:43.012Z,10.93
2018-10-09T02:01:13.634Z,7.80
2018-10-09T02:03:44.247Z,8.03
2018-10-09T02:06:14.944Z,8.57
2018-10-09T02:08:45.576Z,8.83
2018-10-09T02:11:16.236Z,10.77
2018-10-09T02:13:46.878Z,8.43
2018-10-09T02:16:17.793Z,9.93
2018-10-09T02:18:48.419Z,8.87
2018-10-09T02:21:19.066Z,11.27
2018-10-09T02:23:49.672Z,9.17
2018-10-09T02:26:20.304Z,8.43
2018-10-09T02:28:51.011Z,8.90
2018-10-09T02:31:21.776Z,10.80
2018-10-09T02:33:52.415Z,9.80
2018-10-09T02:36:23.010Z,10.97
2018-10-09T02:38:53.675Z,12.53
2018-10-09T02:41:24.361Z,10.97
2018-10-09T02:43:55.045Z,9.53
2018-10-09T02:46:25.745Z,11.40
2018-10-09T02:48:56.487Z,10.57
2018-10-09T02:51:27.226Z,10.90
2018-10-09T02:53:58.046Z,10.70
2018-10-09T02:56:28.689Z,12.07
2018-10-09T02:58:59.366Z,11.63
2018-10-09T03:01:30.151Z,14.07
2018-10-09T03:04:00.821Z,12.53
2018-10-09T03:06:31.475Z,12.33
2018-10-09T03:09:02.178Z,15.00
2018-10-09T03:11:32.891Z,10.47
2018-10-09T03:14:03.660Z,10.53
2018-10-09T03:16:34.305Z,10.33
2018-10-09T03:19:04.992Z,9.53
2018-10-09T03:21:35.663Z,11.73
2018-10-09T03:24:06.423Z,10.60
2018-10-09T03:26:37.047Z,10.43
2018-10-09T03:29:08.080Z,11.13
2018-10-09T03:31:38.755Z,9.53
2018-10-09T03:34:09.423Z,10.83
2018-10-09T03:36:40.093Z,11.87
2018-10-09T03:39:11.052Z,11.43
2018-10-09T03:41:41.610Z,15.00
2018-10-09T03:44:12.287Z,10.07
2018-10-09T03:46:42.952Z,12.03
2018-10-09T03:49:13.603Z,11.10
2018-10-09T03:51:44.296Z,11.00
2018-10-09T03:54:14.988Z,14.80
2018-10-09T03:56:45.759Z,9.53
2018-10-09T03:59:16.382Z,12.93
2018-10-09T04:01:47.026Z,12.13
2018-10-09T04:04:17.688Z,10.30
2018-10-09T04:06:48.303Z,13.33
2018-10-09T04:09:18.993Z,13.23
2018-10-09T04:11:49.569Z,11.83
2018-10-09T04:14:20.272Z,10.87
2018-10-09T04:16:50.913Z,12.03
2018-10-09T04:19:21.624Z,13.30
2018-10-09T04:21:52.247Z,10.60
2018-10-09T04:24:22.835Z,14.83
2018-10-09T04:26:53.511Z,15.53
2018-10-09T04:29:24.271Z,11.17
2018-10-09T04:31:54.877Z,12.47
2018-10-09T04:34:25.463Z,9.70
2018-10-09T04:36:56.073Z,10.43
2018-10-09T04:39:26.686Z,12.00
2018-10-09T04:41:57.340Z,14.07
2018-10-09T04:44:27.999Z,12.70
2018-10-09T04:46:58.790Z,16.30
2018-10-09T04:49:29.485Z,11.20
2018-10-09T04:52:00.111Z,13.17
2018-10-09T04:54:30.882Z,15.67
2018-10-09T04:57:01.502Z,13.67
2018-10-09T04:59:32.176Z,12.70
2018-10-09T05:02:02.853Z,12.07
2018-10-09T05:04:33.505Z,14.43
2018-10-09T05:07:04.203Z,12.27
2018-10-09T05:09:34.901Z,15.37
2018-10-09T05:12:05.593Z,15.23
2018-10-09T05:14:36.226Z,14.33
2018-10-09T05:17:07.260Z,17.47
2018-10-09T05:19:37.894Z,14.93
2018-10-09T05:22:08.775Z,15.70
2018-10-09T05:24:39.435Z,15.73
2018-10-09T05:27:10.103Z,16.33
2018-10-09T05:29:40.846Z,17.07
2018-10-09T05:32:11.516Z,17.80
2018-10-09T05:34:42.115Z,17.53
2018-10-09T05:37:12.790Z,17.17
2018-10-09T05:39:43.466Z,15.33
2018-10-09T05:42:14.139Z,15.23
2018-10-09T05:44:44.854Z,17.77
2018-10-09T05:47:15.520Z,19.87
2018-10-09T05:49:46.147Z,15.27
2018-10-09T05:52:16.790Z,16.20
2018-10-09T05:54:47.618Z,21.67
2018-10-09T05:57:18.264Z,15.87
2018-10-09T05:59:48.956Z,17.10
2018-10-09T06:02:19.638Z,16.93
2018-10-09T06:04:50.331Z,16.17
2018-10-09T06:07:21.065Z,15.57
2018-10-09T06:09:51.753Z,21.30
2018-10-09T06:12:22.428Z,18.67
2018-10-09T06:14:53.085Z,18.10
2018-10-09T06:17:23.771Z,18.00
2018-10-09T06:19:54.422Z,18.93
2018-10-09T06:22:25.084Z,25.90
2018-10-09T06:24:55.696Z,24.97
2018-10-09T06:27:26.375Z,19.50
2018-10-09T06:29:57.038Z,17.73
2018-10-09T06:32:27.673Z,23.03
2018-10-09T06:34:58.395Z,26.77
2018-10-09T06:37:29.007Z,25.07
2018-10-09T06:39:59.695Z,23.23
2018-10-09T06:42:30.389Z,21.47
2018-10-09T06:45:01.047Z,24.43
2018-10-09T06:47:32.347Z,21.90
2018-10-09T06:50:03.021Z,22.43
2018-10-09T06:52:33.666Z,27.17
2018-10-09T06:55:04.362Z,22.43
2018-10-09T06:57:35.061Z,22.50
2018-10-09T07:00:05.995Z,22.00
2018-10-09T07:02:36.670Z,18.73
2018-10-09T07:05:07.596Z,16.13
2018-10-09T07:07:38.305Z,18.10
2018-10-09T07:10:09.085Z,19.00
2018-10-09T07:12:39.740Z,17.00
2018-10-09T07:15:10.498Z,18.97
2018-10-09T07:17:41.184Z,15.93
2018-10-09T07:20:11.848Z,21.97
2018-10-09T07:22:42.532Z,14.93
2018-10-09T07:25:13.194Z,16.03
2018-10-09T07:27:43.848Z,16.77
2018-10-09T07:30:14.488Z,14.20
2018-10-09T07:32:45.160Z,17.50
2018-10-09T07:35:15.863Z,13.53
2018-10-09T07:37:46.523Z,14.50
2018-10-09T07:40:17.274Z,18.20
2018-10-09T07:42:47.908Z,15.20
2018-10-09T07:45:18.596Z,15.53
2018-10-09T07:47:49.272Z,17.00
2018-10-09T07:50:19.910Z,15.03
2018-10-09T07:52:50.667Z,16.60
2018-10-09T07:55:21.339Z,16.67
2018-10-09T07:57:52.040Z,17.50
2018-10-09T08:00:22.965Z,18.47
2018-10-09T08:02:53.684Z,15.10
2018-10-09T08:05:27.400Z,16.00
2018-10-09T08:07:58.058Z,15.30
2018-10-09T08:10:28.899Z,15.27
2018-10-09T08:12:59.489Z,15.43
2018-10-09T08:15:30.181Z,15.63
2018-10-09T08:18:00.864Z,14.03
2018-10-09T08:20:31.539Z,12.10
2018-10-09T08:23:02.341Z,13.43
2018-10-09T08:25:32.962Z,13.43
2018-10-09T08:28:03.662Z,16.67
2018-10-09T08:30:34.362Z,14.33
2018-10-09T08:33:05.088Z,14.67
2018-10-09T08:35:35.708Z,15.47
2018-10-09T08:38:06.457Z,14.97
2018-10-09T08:40:37.162Z,13.33
2018-10-09T08:43:07.865Z,14.93
2018-10-09T08:45:38.511Z,16.07
2018-10-09T08:48:09.217Z,16.07
2018-10-09T08:50:39.851Z,17.20
2018-10-09T08:53:10.539Z,16.13
2018-10-09T08:55:41.255Z,14.67
2018-10-09T08:58:11.939Z,13.80
2018-10-09T09:00:42.740Z,13.67
2018-10-09T09:03:13.397Z,13.33
2018-10-09T09:05:44.194Z,14.97
2018-10-09T09:08:14.832Z,14.53
2018-10-09T09:10:45.565Z,14.57
2018-10-09T09:13:16.281Z,13.10
2018-10-09T09:15:46.967Z,11.60
2018-10-09T09:18:17.634Z,12.07
2018-10-09T09:20:48.320Z,14.93
2018-10-09T09:23:18.968Z,13.27
2018-10-09T09:25:49.634Z,11.43
2018-10-09T09:28:20.286Z,10.77
2018-10-09T09:30:50.904Z,13.03
2018-10-09T09:33:21.659Z,13.17
2018-10-09T09:35:52.326Z,15.47
2018-10-09T09:38:22.992Z,16.10
2018-10-09T09:40:53.702Z,14.07
2018-10-09T09:43:24.409Z,12.43
2018-10-09T09:45:55.236Z,13.63
2018-10-09T09:48:25.813Z,13.97
2018-10-09T09:50:56.514Z,14.33
2018-10-09T09:53:27.210Z,14.00
2018-10-09T09:55:57.927Z,12.97
2018-10-09T09:58:28.661Z,14.37
2018-10-09T10:01:13.499Z,14.93
2018-10-09T10:03:44.258Z,14.60
2018-10-09T10:06:14.878Z,14.03
2018-10-09T10:08:45.543Z,13.27
2018-10-09T10:11:16.150Z,13.63
2018-10-09T10:13:46.799Z,13.00
2018-10-09T10:16:17.500Z,15.87
2018-10-09T10:18:48.238Z,16.43
2018-10-09T10:21:19.267Z,13.60
2018-10-09T10:23:49.924Z,13.30
2018-10-09T10:26:20.640Z,12.80
2018-10-09T10:28:51.365Z,15.27
2018-10-09T10:31:22.026Z,17.40
2018-10-09T10:33:52.802Z,13.40
2018-10-09T10:36:23.522Z,14.07
2018-10-09T10:38:54.186Z,12.53
2018-10-09T10:41:24.893Z,13.13
2018-10-09T10:43:55.566Z,13.97
2018-10-09T10:46:30.237Z,16.23
2018-10-09T10:49:06.743Z,14.40
2018-10-09T10:51:37.940Z,14.23
2018-10-09T10:54:08.895Z,12.43
2018-10-09T10:56:39.675Z,13.00
2018-10-09T10:59:10.416Z,13.37
2018-10-09T11:01:41.420Z,31.20
2018-10-09T11:04:12.096Z,23.97
2018-10-09T11:06:42.840Z,15.47
2018-10-09T11:09:13.493Z,14.57
2018-10-09T11:11:44.196Z,11.80
2018-10-09T11:14:14.911Z,12.97
2018-10-09T11:16:45.599Z,13.20
2018-10-09T11:19:16.231Z,13.83
2018-10-09T11:21:46.917Z,13.20
2018-10-09T11:24:17.577Z,13.20
2018-10-09T11:26:48.268Z,12.50
2018-10-09T11:29:19.995Z,15.70
2018-10-09T11:31:50.653Z,13.17
2018-10-09T11:34:21.292Z,13.10
2018-10-09T11:36:51.948Z,12.27
2018-10-09T11:39:22.656Z,12.70
2018-10-09T11:41:53.333Z,14.53
2018-10-09T11:44:23.981Z,11.33
2018-10-09T11:46:54.667Z,16.30
2018-10-09T11:49:25.396Z,15.73
2018-10-09T11:51:56.076Z,13.13
2018-10-09T11:54:26.733Z,12.40
2018-10-09T11:56:57.423Z,11.87
2018-10-09T11:59:28.101Z,13.30
2018-10-09T12:01:58.798Z,12.27
2018-10-09T12:04:29.538Z,13.03
2018-10-09T12:07:00.218Z,12.20
2018-10-09T12:09:30.910Z,11.93
2018-10-09T12:12:01.560Z,11.97
2018-10-09T12:14:32.233Z,12.90
2018-10-09T12:17:02.882Z,13.00
2018-10-09T12:19:33.513Z,12.03
2018-10-09T12:22:04.300Z,11.33
2018-10-09T12:24:34.893Z,10.03
2018-10-09T12:27:05.607Z,12.67
2018-10-09T12:29:36.248Z,8.23
2018-10-09T12:32:07.108Z,10.00
2018-10-09T12:34:37.799Z,11.27
2018-10-09T12:37:08.518Z,10.03
2018-10-09T12:39:39.183Z,10.43
2018-10-09T12:42:09.886Z,10.00
2018-10-09T12:44:40.560Z,10.43
2018-10-09T12:47:11.223Z,9.73
2018-10-09T12:49:41.893Z,11.00
2018-10-09T12:52:12.533Z,9.43
2018-10-09T12:54:43.227Z,8.10
2018-10-09T12:57:13.926Z,10.27
2018-10-09T12:59:44.589Z,11.73
2018-10-09T13:02:15.266Z,8.83
2018-10-09T13:04:45.904Z,8.37
2018-10-09T13:07:16.557Z,8.27
2018-10-09T13:09:47.196Z,6.70
2018-10-09T13:12:17.859Z,7.17
2018-10-09T13:14:48.521Z,8.50
2018-10-09T13:17:19.215Z,7.80
2018-10-09T13:19:49.863Z,6.77
2018-10-09T13:22:20.904Z,8.50
2018-10-09T13:25:06.144Z,7.60
2018-10-09T13:27:36.823Z,6.20
2018-10-09T13:30:08.360Z,6.77
2018-10-09T13:32:39.013Z,7.97
2018-10-09T13:35:09.803Z,6.00
2018-10-09T13:37:40.442Z,7.07
2018-10-09T13:40:11.118Z,9.60
2018-10-09T13:42:41.791Z,5.97
2018-10-09T13:45:12.426Z,8.23
2018-10-09T13:47:43.203Z,5.77
2018-10-09T13:50:13.865Z,6.30
2018-10-09T13:52:44.528Z,7.20
2018-10-09T13:55:15.245Z,5.37
2018-10-09T13:57:45.859Z,8.80
2018-10-09T14:00:16.529Z,5.00
2018-10-09T14:02:47.229Z,5.97
2018-10-09T14:05:17.962Z,5.63
2018-10-09T14:07:49.541Z,4.20
2018-10-09T14:10:20.192Z,8.33
2018-10-09T14:12:50.845Z,6.87
2018-10-09T14:15:21.609Z,4.53
2018-10-09T14:17:52.248Z,4.73
2018-10-09T14:20:22.865Z,4.10
2018-10-09T14:22:53.594Z,4.97
2018-10-09T14:25:24.148Z,6.77
2018-10-09T14:27:54.806Z,4.93
2018-10-09T14:30:25.489Z,3.90
2018-10-09T14:32:56.116Z,5.33
2018-10-09T14:35:26.847Z,4.60
2018-10-09T14:37:57.510Z,4.93
2018-10-09T14:40:28.214Z,4.80
2018-10-09T14:42:58.847Z,4.00
2018-10-09T14:45:29.604Z,4.53
2018-10-09T14:48:00.263Z,4.50
2018-10-09T14:50:30.905Z,5.30
2018-10-09T14:53:01.566Z,4.57
2018-10-09T14:55:38.820Z,4.73
2018-10-09T14:58:09.551Z,4.60
2018-10-09T15:00:40.249Z,4.27
2018-10-09T15:03:10.985Z,5.27
2018-10-09T15:05:41.704Z,3.53
2018-10-09T15:08:12.462Z,4.53
2018-10-09T15:10:43.162Z,4.90
2018-10-09T15:13:13.822Z,3.93
2018-10-09T15:15:44.507Z,3.90
2018-10-09T15:18:15.119Z,3.90
2018-10-09T15:20:45.832Z,5.33
2018-10-09T15:23:16.519Z,4.30
2018-10-09T15:25:47.172Z,3.90
2018-10-09T15:28:17.864Z,5.10
2018-10-09T15:30:48.466Z,4.27
2018-10-09T15:33:19.160Z,5.33
2018-10-09T15:35:49.818Z,5.57
2018-10-09T15:38:20.482Z,4.30
2018-10-09T15:40:51.096Z,3.67
2018-10-09T15:43:21.835Z,4.10
2018-10-09T15:45:52.475Z,3.57
2018-10-09T15:48:23.136Z,3.10
2018-10-09T15:50:53.879Z,6.07
2018-10-09T15:53:24.567Z,4.87
2018-10-09T15:55:55.209Z,3.53
2018-10-09T15:58:25.994Z,8.17
2018-10-09T16:00:56.558Z,8.23
2018-10-09T16:03:27.266Z,4.33
2018-10-09T16:05:58.021Z,5.33
2018-10-09T16:08:28.687Z,4.87
2018-10-09T16:10:59.346Z,3.43
2018-10-09T16:13:29.972Z,5.53
2018-10-09T16:16:00.659Z,4.37
2018-10-09T16:18:31.327Z,7.23
2018-10-09T16:21:01.982Z,5.13
2018-10-09T16:23:33.114Z,6.20
2018-10-09T16:26:03.815Z,3.80
2018-10-09T16:28:34.493Z,5.33
2018-10-09T16:31:05.211Z,5.60
2018-10-09T16:33:35.940Z,5.47
2018-10-09T16:36:06.657Z,6.37
2018-10-09T16:38:37.377Z,3.77
2018-10-09T16:41:08.636Z,5.17
2018-10-09T16:43:39.252Z,4.23
2018-10-09T16:46:09.900Z,4.03
2018-10-09T16:48:40.631Z,6.90
2018-10-09T16:51:11.384Z,9.27
2018-10-09T16:53:42.025Z,4.40
2018-10-09T16:56:12.644Z,4.97
2018-10-09T16:58:43.284Z,5.20
2018-10-09T17:01:13.940Z,6.40
2018-10-09T17:03:44.562Z,5.07
2018-10-09T17:06:15.297Z,4.50
2018-10-09T17:08:45.927Z,5.67
2018-10-09T17:11:16.686Z,4.90
2018-10-09T17:13:47.304Z,5.17
2018-10-09T17:16:17.958Z,6.07
2018-10-09T17:18:48.688Z,4.50
2018-10-09T17:21:19.336Z,6.23
2018-10-09T17:23:50.020Z,5.30
2018-10-09T17:26:20.636Z,4.90
2018-10-09T17:28:51.259Z,4.57
2018-10-09T17:31:21.915Z,4.03
2018-10-09T17:33:52.561Z,6.03
2018-10-09T17:36:23.257Z,4.60
2018-10-09T17:38:53.907Z,4.00
2018-10-09T17:41:24.567Z,4.43
2018-10-09T17:43:55.199Z,6.70
2018-10-09T17:46:25.970Z,5.73
2018-10-09T17:48:56.476Z,4.70
2018-10-09T17:51:27.116Z,6.60
2018-10-09T17:53:57.833Z,6.77
2018-10-09T17:56:28.479Z,6.53
2018-10-09T17:58:59.070Z,6.70
2018-10-09T18:01:29.817Z,8.70
2018-10-09T18:04:00.451Z,6.43
2018-10-09T18:06:31.179Z,6.40
2018-10-09T18:09:01.905Z,7.47
2018-10-09T18:11:32.515Z,6.23
2018-10-09T18:14:03.138Z,8.90
2018-10-09T18:16:33.769Z,9.27
2018-10-09T18:19:04.587Z,7.30
2018-10-09T18:21:35.845Z,7.20
2018-10-09T18:24:06.914Z,8.07
2018-10-09T18:26:37.527Z,9.37
2018-10-09T18:29:08.219Z,9.20
2018-10-09T18:31:38.835Z,8.53
2018-10-09T18:34:09.544Z,11.03
2018-10-09T18:36:40.322Z,7.77
2018-10-09T18:39:14.779Z,7.10
2018-10-09T18:41:46.412Z,10.07
2018-10-09T18:44:17.068Z,9.10
2018-10-09T18:46:47.757Z,8.57
2018-10-09T18:49:18.492Z,10.73
2018-10-09T18:51:49.150Z,8.50
2018-10-09T18:54:19.826Z,9.77
2018-10-09T18:56:50.425Z,9.90
2018-10-09T18:59:21.092Z,8.90
2018-10-09T19:01:51.876Z,9.53
2018-10-09T19:04:22.560Z,14.53
2018-10-09T19:06:53.233Z,11.17
2018-10-09T19:09:23.863Z,10.37
2018-10-09T19:11:54.558Z,13.30
2018-10-09T19:14:25.232Z,11.97
2018-10-09T19:16:55.964Z,11.43
2018-10-09T19:19:26.896Z,11.73
2018-10-09T19:21:57.588Z,8.57
2018-10-09T19:24:28.268Z,12.40
2018-10-09T19:26:59.298Z,10.47
2018-10-09T19:30:01.364Z,11.40
2018-10-09T19:32:32.087Z,12.70
2018-10-09T19:35:03.454Z,12.63
2018-10-09T19:37:34.134Z,9.87
2018-10-09T19:40:05.909Z,10.27
2018-10-09T19:42:36.570Z,9.73
2018-10-09T19:45:07.367Z,12.27
2018-10-09T19:47:38.585Z,8.17
2018-10-09T19:50:09.799Z,9.23
2018-10-09T19:52:40.445Z,9.10
2018-10-09T19:55:11.147Z,10.67
2018-10-09T19:57:41.758Z,10.37
2018-10-09T20:00:12.466Z,9.87
2018-10-09T20:02:43.093Z,14.73
2018-10-09T20:05:13.772Z,11.87
2018-10-09T20:07:44.534Z,9.93
2018-10-09T20:10:15.180Z,8.73
2018-10-09T20:12:45.847Z,9.97
2018-10-09T20:15:16.505Z,9.80
2018-10-09T20:17:47.408Z,11.33
2018-10-09T20:20:18.094Z,10.80
2018-10-09T20:22:48.943Z,11.50
2018-10-09T20:25:19.603Z,10.03
2018-10-09T20:27:50.323Z,9.87
2018-10-09T20:30:20.995Z,10.80
2018-10-09T20:32:51.714Z,9.20
2018-10-09T20:35:22.339Z,11.50
2018-10-09T20:37:53.036Z,10.87
2018-10-09T20:40:23.740Z,9.73
2018-10-09T20:42:54.435Z,10.27
2018-10-09T20:45:25.109Z,12.87
2018-10-09T20:47:55.802Z,10.60
2018-10-09T20:50:26.405Z,11.37
2018-10-09T20:52:57.076Z,12.47
2018-10-09T20:55:27.762Z,10.03
2018-10-09T20:57:58.409Z,12.63
2018-10-09T21:00:29.068Z,10.70
2018-10-09T21:02:59.767Z,12.63
2018-10-09T21:05:30.442Z,11.77
2018-10-09T21:08:01.072Z,11.70
2018-10-09T21:10:31.753Z,11.53
2018-10-09T21:13:02.398Z,11.97
2018-10-09T21:15:33.095Z,11.97
2018-10-09T21:18:03.850Z,11.90
2018-10-09T21:20:34.466Z,16.33
2018-10-09T21:23:05.155Z,11.37
2018-10-09T21:25:35.825Z,12.23
2018-10-09T21:28:06.693Z,12.10
2018-10-09T21:30:37.332Z,17.50
2018-10-09T21:33:08.222Z,11.37
2018-10-09T21:35:38.880Z,12.77
2018-10-09T21:38:09.659Z,12.53
2018-10-09T21:40:40.411Z,14.17
2018-10-09T21:43:11.132Z,13.50
2018-10-09T21:45:41.777Z,13.17
2018-10-09T21:48:43.396Z,12.83
2018-10-09T21:51:14.787Z,13.33
2018-10-09T21:53:45.494Z,12.17
2018-10-09T21:56:16.221Z,11.53
2018-10-09T21:58:46.917Z,12.50
2018-10-09T22:01:17.565Z,12.70
2018-10-09T22:03:48.231Z,13.67
2018-10-09T22:06:18.890Z,13.57
2018-10-09T22:08:53.815Z,11.70
2018-10-09T22:11:24.448Z,14.17
2018-10-09T22:13:55.114Z,13.67
2018-10-09T22:16:25.755Z,14.70
2018-10-09T22:18:56.434Z,13.53
2018-10-09T22:21:27.092Z,11.73
2018-10-09T22:23:57.799Z,14.20
2018-10-09T22:26:28.467Z,12.33
2018-10-09T22:28:59.217Z,13.60
2018-10-09T22:31:29.912Z,12.33
2018-10-09T22:34:00.610Z,13.27
2018-10-09T22:36:31.242Z,14.33
2018-10-09T22:39:01.947Z,16.80
2018-10-09T22:41:32.554Z,13.57
2018-10-09T22:44:03.312Z,14.90
2018-10-09T22:46:34.048Z,15.70
2018-10-09T22:49:04.722Z,15.03
2018-10-09T22:51:35.448Z,17.40
2018-10-09T22:54:06.116Z,15.37
2018-10-09T22:56:36.786Z,16.33
2018-10-09T22:59:07.505Z,15.90
2018-10-09T23:01:38.208Z,17.87
2018-10-09T23:04:08.992Z,17.90
2018-10-09T23:06:39.637Z,16.13
2018-10-09T23:09:12.084Z,16.43
2018-10-09T23:11:42.736Z,17.97
2018-10-09T23:14:14.842Z,16.47
2018-10-09T23:16:45.552Z,20.43
2018-10-09T23:19:16.217Z,16.37
2018-10-09T23:21:46.925Z,17.27
2018-10-09T23:24:17.575Z,17.23
2018-10-09T23:26:48.276Z,16.77
2018-10-09T23:29:18.934Z,19.57
2018-10-09T23:31:49.719Z,18.73
2018-10-09T23:34:20.435Z,16.87
2018-10-09T23:36:51.203Z,18.43
2018-10-09T23:39:21.847Z,17.10
2018-10-09T23:41:52.654Z,17.87
2018-10-09T23:44:23.325Z,19.07
2018-10-09T23:46:54.023Z,19.73
2018-10-09T23:49:24.700Z,19.03
2018-10-09T23:51:55.392Z,20.00
2018-10-09T23:54:26.030Z,20.37
2018-10-09T23:56:56.706Z,17.17
2018-10-09T23:59:27.420Z,17.73
